createdAt,value
2022-12-03T00:00:46.777Z,27.83
2022-12-03T00:03:13.674Z,25.17
2022-12-03T00:05:48.236Z,16.90
2022-12-03T00:08:16.068Z,13.15
2022-12-03T00:10:42.965Z,27.05
2022-12-03T00:13:10.114Z,30.80
2022-12-03T00:15:37.111Z,19.75
2022-12-03T00:18:04.123Z,21.27
2022-12-03T00:20:30.961Z,30.07
2022-12-03T00:22:57.874Z,27.45
2022-12-03T00:25:24.730Z,27.50
2022-12-03T00:27:51.563Z,31.08
2022-12-03T00:30:18.444Z,28.85
2022-12-03T00:32:45.368Z,37.15
2022-12-03T00:35:12.192Z,31.23
2022-12-03T00:37:39.007Z,28.33
2022-12-03T00:40:06.819Z,31.02
2022-12-03T00:42:33.667Z,23.73
2022-12-03T00:45:00.669Z,32.30
2022-12-03T00:47:27.533Z,35.30
2022-12-03T00:49:54.344Z,31.67
2022-12-03T00:52:21.233Z,30.30
2022-12-03T00:54:49.046Z,32.75
2022-12-03T00:57:16.258Z,34.50
2022-12-03T00:59:43.119Z,35.08
2022-12-03T01:02:10.243Z,32.35
2022-12-03T01:04:37.568Z,30.60
2022-12-03T01:07:04.863Z,33.80
2022-12-03T01:09:31.773Z,36.50
2022-12-03T01:11:58.688Z,37.87
2022-12-03T01:14:25.884Z,35.28
2022-12-03T01:16:52.734Z,32.35
2022-12-03T01:19:20.934Z,29.52
2022-12-03T01:21:50.030Z,29.88
2022-12-03T01:24:17.838Z,31.15
2022-12-03T01:26:44.914Z,34.08
2022-12-03T01:29:11.774Z,24.98
2022-12-03T01:31:57.597Z,34.40
2022-12-03T01:34:24.526Z,34.22
2022-12-03T01:36:52.540Z,36.58
2022-12-03T01:39:19.917Z,30.80
2022-12-03T01:41:48.196Z,33.85
2022-12-03T01:44:23.333Z,35.33
2022-12-03T01:46:52.305Z,37.03
2022-12-03T01:49:28.959Z,39.47
2022-12-03T01:51:57.153Z,36.58
2022-12-03T01:54:35.720Z,31.80
2022-12-03T01:57:02.907Z,27.87
2022-12-03T01:59:39.356Z,37.15
2022-12-03T02:02:34.708Z,31.80
2022-12-03T02:05:06.089Z,31.93
2022-12-03T02:07:34.234Z,37.70
2022-12-03T02:10:02.909Z,34.05
2022-12-03T02:12:45.749Z,33.75
2022-12-03T02:15:13.355Z,34.90
2022-12-03T02:17:42.984Z,38.22
2022-12-03T02:20:11.534Z,38.42
2022-12-03T02:23:03.242Z,34.25
2022-12-03T02:25:33.440Z,32.80
2022-12-03T02:28:01.149Z,38.58
2022-12-03T02:30:30.074Z,35.83
2022-12-03T02:32:57.700Z,33.73
2022-12-03T02:35:27.665Z,33.75
2022-12-03T02:38:00.195Z,36.42
2022-12-03T02:40:30.255Z,38.63
2022-12-03T02:43:03.005Z,39.35
2022-12-03T02:45:38.122Z,36.47
2022-12-03T02:48:14.157Z,37.80
2022-12-03T02:50:45.272Z,41.58
2022-12-03T02:53:20.217Z,27.00
2022-12-03T02:55:48.549Z,38.92
2022-12-03T02:58:15.952Z,29.88
2022-12-03T03:00:43.980Z,35.25
2022-12-03T03:03:11.535Z,34.75
2022-12-03T03:05:40.203Z,40.40
2022-12-03T03:08:08.923Z,43.70
2022-12-03T03:10:37.194Z,36.20
2022-12-03T03:13:09.199Z,36.92
2022-12-03T03:15:37.594Z,38.22
2022-12-03T03:18:05.578Z,35.17
2022-12-03T03:20:32.706Z,33.45
2022-12-03T03:23:14.340Z,38.50
2022-12-03T03:25:44.453Z,35.47
2022-12-03T03:28:12.096Z,41.22
2022-12-03T03:30:40.956Z,30.60
2022-12-03T03:33:08.561Z,36.00
2022-12-03T03:35:36.437Z,40.22
2022-12-03T03:38:03.884Z,39.40
2022-12-03T03:40:30.772Z,26.05
2022-12-03T03:42:58.128Z,29.58
2022-12-03T03:45:29.091Z,38.13
2022-12-03T03:47:58.827Z,42.85
2022-12-03T03:50:29.879Z,42.08
2022-12-03T03:52:58.655Z,40.42
2022-12-03T03:55:25.798Z,22.77
2022-12-03T03:57:52.760Z,22.98
2022-12-03T04:00:19.843Z,16.45
2022-12-03T04:02:46.915Z,17.10
2022-12-03T04:05:19.983Z,17.15
2022-12-03T04:07:46.923Z,37.90
2022-12-03T04:10:33.770Z,32.35
2022-12-03T04:13:01.071Z,17.23
2022-12-03T04:15:28.420Z,36.28
2022-12-03T04:18:13.719Z,24.73
2022-12-03T04:20:41.595Z,19.23
2022-12-03T04:23:08.870Z,15.93
2022-12-03T04:25:54.245Z,39.05
2022-12-03T04:28:39.983Z,21.40
2022-12-03T04:31:25.516Z,14.98
2022-12-03T04:34:11.508Z,31.58
2022-12-03T04:36:38.966Z,15.93
2022-12-03T04:39:05.950Z,24.30
2022-12-03T04:41:32.867Z,27.15
2022-12-03T04:44:18.148Z,35.25
2022-12-03T04:46:44.952Z,30.33
2022-12-03T04:49:13.027Z,30.50
2022-12-03T04:51:39.924Z,32.77
2022-12-03T04:54:06.927Z,37.47
2022-12-03T04:56:33.809Z,27.95
2022-12-03T04:59:00.858Z,19.95
2022-12-03T05:01:27.859Z,25.40
2022-12-03T05:03:54.854Z,24.88
2022-12-03T05:06:22.389Z,20.50
2022-12-03T05:08:49.345Z,17.00
2022-12-03T05:11:16.184Z,19.02
2022-12-03T05:13:43.378Z,19.93
2022-12-03T05:16:10.580Z,16.40
2022-12-03T05:18:37.737Z,14.48
2022-12-03T05:21:04.698Z,28.95
2022-12-03T05:23:32.207Z,22.88
2022-12-03T05:25:59.052Z,13.45
2022-12-03T05:28:25.916Z,18.23
2022-12-03T05:30:52.887Z,11.20
2022-12-03T05:33:20.456Z,18.02
2022-12-03T05:35:47.475Z,19.93
2022-12-03T05:38:14.433Z,12.85
2022-12-03T05:40:41.369Z,16.52
2022-12-03T05:43:08.640Z,15.02
2022-12-03T05:45:37.045Z,17.67
2022-12-03T05:48:05.626Z,15.23
2022-12-03T05:50:35.346Z,29.63
2022-12-03T05:53:14.893Z,14.38
2022-12-03T05:55:41.903Z,11.25
2022-12-03T05:58:09.280Z,12.02
2022-12-03T06:00:42.501Z,12.52
2022-12-03T06:03:10.636Z,21.65
2022-12-03T06:05:37.738Z,23.38
2022-12-03T06:08:04.771Z,15.30
2022-12-03T06:10:32.481Z,11.45
2022-12-03T06:12:59.441Z,27.65
2022-12-03T06:15:26.396Z,20.25
2022-12-03T06:17:55.394Z,22.10
2022-12-03T06:20:22.204Z,9.20
2022-12-03T06:22:49.265Z,20.15
2022-12-03T06:25:16.497Z,21.10
2022-12-03T06:27:43.701Z,13.88
2022-12-03T06:30:13.030Z,13.25
2022-12-03T06:32:39.956Z,24.35
2022-12-03T06:35:07.055Z,28.77
2022-12-03T06:37:33.906Z,25.02
2022-12-03T06:40:00.808Z,21.60
2022-12-03T06:42:27.615Z,10.23
2022-12-03T06:44:54.734Z,18.05
2022-12-03T06:47:21.773Z,21.67
2022-12-03T06:49:48.553Z,31.25
2022-12-03T06:52:15.490Z,15.43
2022-12-03T06:54:42.329Z,12.63
2022-12-03T06:57:09.182Z,19.90
2022-12-03T06:59:37.544Z,20.08
2022-12-03T07:02:05.092Z,16.42
2022-12-03T07:04:32.015Z,14.48
2022-12-03T07:06:58.909Z,26.42
2022-12-03T07:09:25.834Z,10.85
2022-12-03T07:11:52.775Z,17.55
2022-12-03T07:14:19.802Z,28.63
2022-12-03T07:16:47.572Z,14.10
2022-12-03T07:19:14.533Z,18.80
2022-12-03T07:21:41.582Z,13.98
2022-12-03T07:24:08.822Z,12.63
2022-12-03T07:26:35.677Z,17.95
2022-12-03T07:29:02.523Z,27.30
2022-12-03T07:31:29.455Z,24.40
2022-12-03T07:33:56.332Z,15.90
2022-12-03T07:36:23.248Z,14.40
2022-12-03T07:38:50.116Z,30.45
2022-12-03T07:41:16.930Z,19.13
2022-12-03T07:43:45.250Z,28.88
2022-12-03T07:46:12.343Z,22.30
2022-12-03T07:48:39.260Z,15.68
2022-12-03T07:51:06.269Z,31.33
2022-12-03T07:53:33.155Z,17.77
2022-12-03T07:56:00.036Z,21.65
2022-12-03T07:58:26.944Z,20.70
2022-12-03T08:00:53.912Z,19.30
2022-12-03T08:03:20.867Z,18.17
2022-12-03T08:05:47.718Z,12.80
2022-12-03T08:08:15.135Z,19.42
2022-12-03T08:10:42.072Z,16.17
2022-12-03T08:13:15.395Z,18.38
2022-12-03T08:15:42.715Z,20.50
2022-12-03T08:18:16.225Z,13.52
2022-12-03T08:20:44.750Z,19.08
2022-12-03T08:23:15.219Z,18.05
2022-12-03T08:25:43.691Z,31.23
2022-12-03T08:28:26.549Z,14.88
2022-12-03T08:31:01.449Z,19.23
2022-12-03T08:33:36.222Z,13.43
2022-12-03T08:36:26.615Z,17.25
2022-12-03T08:39:05.346Z,29.25
2022-12-03T08:41:50.611Z,12.30
2022-12-03T08:44:28.092Z,33.53
2022-12-03T08:47:01.189Z,23.77
2022-12-03T08:49:28.070Z,21.87
2022-12-03T08:51:59.237Z,25.20
2022-12-03T08:54:26.914Z,23.50
2022-12-03T08:56:54.255Z,35.67
2022-12-03T08:59:32.207Z,27.58
2022-12-03T09:02:00.821Z,28.92
2022-12-03T09:04:33.580Z,18.87
2022-12-03T09:07:00.492Z,26.60
2022-12-03T09:09:27.498Z,20.80
2022-12-03T09:11:54.761Z,29.92
2022-12-03T09:14:22.808Z,38.72
2022-12-03T09:16:58.254Z,35.22
2022-12-03T09:19:27.377Z,42.85
2022-12-03T09:21:55.063Z,31.50
2022-12-03T09:24:22.205Z,51.58
2022-12-03T09:26:49.373Z,57.33
2022-12-03T09:29:16.305Z,37.50
2022-12-03T09:31:43.232Z,48.60
2022-12-03T09:34:11.156Z,47.35
2022-12-03T09:36:38.150Z,44.25
2022-12-03T09:39:05.390Z,51.28
2022-12-03T09:41:32.207Z,46.47
2022-12-03T09:44:08.604Z,52.50
2022-12-03T09:46:39.807Z,47.80
2022-12-03T09:49:15.555Z,54.30
2022-12-03T09:51:44.426Z,34.55
2022-12-03T09:54:22.922Z,24.65
2022-12-03T09:56:50.022Z,23.65
2022-12-03T09:59:17.659Z,45.03
2022-12-03T10:01:44.715Z,22.10
2022-12-03T10:04:11.943Z,26.50
2022-12-03T10:06:45.313Z,28.15
2022-12-03T10:09:14.477Z,65.82
2022-12-03T10:11:41.465Z,43.75
2022-12-03T10:14:29.910Z,60.70
2022-12-03T10:16:59.725Z,42.20
2022-12-03T10:19:30.109Z,186.93
2022-12-03T10:21:57.333Z,72.13
2022-12-03T10:24:25.461Z,193.95
2022-12-03T10:26:55.555Z,132.13
2022-12-03T10:29:33.689Z,105.80
2022-12-03T10:32:02.765Z,65.20
2022-12-03T10:34:41.439Z,33.13
2022-12-03T10:37:11.381Z,49.47
2022-12-03T10:39:56.003Z,41.03
2022-12-03T10:42:28.012Z,47.88
2022-12-03T10:45:15.398Z,120.85
2022-12-03T10:48:03.974Z,37.35
2022-12-03T10:50:31.493Z,86.25
2022-12-03T10:52:58.325Z,52.33
2022-12-03T10:55:25.471Z,119.85
2022-12-03T10:57:52.439Z,48.08
2022-12-03T11:00:20.644Z,44.80
2022-12-03T11:02:54.917Z,38.22
2022-12-03T11:05:27.375Z,42.00
2022-12-03T11:07:54.452Z,37.25
2022-12-03T11:10:21.591Z,48.92
2022-12-03T11:13:26.851Z,66.35
2022-12-03T11:15:54.144Z,46.97
2022-12-03T11:18:36.214Z,52.45
2022-12-03T11:21:08.512Z,58.78
2022-12-03T11:23:44.531Z,39.40
2022-12-03T11:26:17.093Z,70.47
2022-12-03T11:28:59.430Z,39.22
2022-12-03T11:31:39.753Z,82.55
2022-12-03T11:34:31.415Z,94.40
2022-12-03T11:37:12.206Z,60.28
2022-12-03T11:39:47.967Z,56.08
2022-12-03T11:42:25.404Z,57.40
2022-12-03T11:45:04.649Z,64.13
2022-12-03T11:47:33.321Z,28.65
2022-12-03T11:50:00.352Z,51.95
2022-12-03T11:52:39.406Z,44.13
2022-12-03T11:55:35.626Z,34.90
2022-12-03T11:58:05.271Z,29.95
2022-12-03T12:00:32.349Z,41.33
2022-12-03T12:02:59.520Z,28.90
2022-12-03T12:05:35.604Z,59.45
2022-12-03T12:08:03.217Z,39.17
2022-12-03T12:10:42.454Z,57.20
2022-12-03T12:13:30.677Z,151.70
2022-12-03T12:16:05.911Z,161.13
2022-12-03T12:18:42.743Z,235.57
2022-12-03T12:21:48.071Z,131.95
2022-12-03T12:24:31.530Z,81.05
2022-12-03T12:27:05.298Z,43.17
2022-12-03T12:29:32.320Z,44.88
2022-12-03T12:32:15.188Z,22.27
2022-12-03T12:34:50.505Z,50.30
2022-12-03T12:37:31.429Z,35.85
2022-12-03T12:39:59.238Z,32.30
2022-12-03T12:42:30.608Z,26.83
2022-12-03T12:45:07.500Z,43.55
2022-12-03T12:47:35.952Z,38.85
2022-12-03T12:50:10.652Z,37.77
2022-12-03T12:52:48.276Z,39.20
2022-12-03T12:55:16.508Z,35.38
2022-12-03T12:57:44.415Z,34.63
2022-12-03T13:00:23.194Z,31.52
2022-12-03T13:02:54.917Z,15.75
2022-12-03T13:05:23.402Z,34.85
2022-12-03T13:07:54.092Z,27.40
2022-12-03T13:10:26.807Z,27.77
2022-12-03T13:12:53.651Z,16.88
2022-12-03T13:15:42.999Z,20.33
2022-12-03T13:18:24.872Z,11.05
2022-12-03T13:20:51.977Z,12.27
2022-12-03T13:23:31.981Z,14.93
2022-12-03T13:26:21.454Z,14.55
2022-12-03T13:28:56.725Z,26.98
2022-12-03T13:31:41.860Z,18.60
2022-12-03T13:34:23.020Z,18.42
2022-12-03T13:36:57.031Z,35.05
2022-12-03T13:39:37.509Z,24.27
2022-12-03T13:42:41.525Z,22.20
2022-12-03T13:45:14.191Z,30.60
2022-12-03T13:47:42.075Z,35.88
2022-12-03T13:50:38.522Z,34.83
2022-12-03T13:53:11.407Z,38.70
2022-12-03T13:55:42.903Z,34.63
2022-12-03T13:58:09.856Z,37.03
2022-12-03T14:00:36.716Z,29.20
2022-12-03T14:03:04.429Z,34.00
2022-12-03T14:05:31.480Z,18.98
2022-12-03T14:08:01.762Z,16.77
2022-12-03T14:10:29.630Z,22.80
2022-12-03T14:12:57.339Z,23.33
2022-12-03T14:15:26.184Z,40.03
2022-12-03T14:17:53.053Z,32.47
2022-12-03T14:20:20.086Z,33.95
2022-12-03T14:22:46.983Z,23.00
2022-12-03T14:25:15.326Z,11.55
2022-12-03T14:27:42.245Z,26.27
2022-12-03T14:30:09.916Z,22.50
2022-12-03T14:32:36.840Z,16.35
2022-12-03T14:35:09.550Z,15.05
2022-12-03T14:37:36.942Z,35.17
2022-12-03T14:40:04.293Z,34.38
2022-12-03T14:42:31.205Z,44.25
2022-12-03T14:44:58.037Z,17.17
2022-12-03T14:47:24.896Z,22.13
2022-12-03T14:49:52.767Z,26.95
2022-12-03T14:52:20.102Z,51.25
2022-12-03T14:54:47.077Z,45.42
2022-12-03T14:57:29.772Z,54.88
2022-12-03T14:59:57.065Z,39.85
2022-12-03T15:02:24.233Z,39.73
2022-12-03T15:04:51.180Z,39.05
2022-12-03T15:07:18.051Z,36.95
2022-12-03T15:09:45.032Z,66.53
2022-12-03T15:12:11.881Z,27.17
2022-12-03T15:14:38.765Z,27.77
2022-12-03T15:17:05.672Z,63.30
2022-12-03T15:19:32.646Z,28.73
2022-12-03T15:21:59.462Z,52.13
2022-12-03T15:24:26.365Z,37.67
2022-12-03T15:26:53.535Z,33.22
2022-12-03T15:29:20.935Z,50.90
2022-12-03T15:31:47.924Z,48.10
2022-12-03T15:34:20.307Z,44.97
2022-12-03T15:36:49.215Z,26.13
2022-12-03T15:39:16.064Z,25.85
2022-12-03T15:41:42.909Z,29.85
2022-12-03T15:44:09.818Z,38.15
2022-12-03T15:46:36.720Z,47.33
2022-12-03T15:49:03.668Z,44.25
2022-12-03T15:51:30.546Z,50.40
2022-12-03T15:53:57.396Z,22.77
2022-12-03T15:56:24.266Z,39.80
2022-12-03T15:58:51.133Z,33.50
2022-12-03T16:01:18.447Z,37.13
2022-12-03T16:03:45.541Z,48.25
2022-12-03T16:06:12.794Z,25.13
2022-12-03T16:08:39.823Z,35.47
2022-12-03T16:11:06.690Z,32.37
2022-12-03T16:13:34.310Z,40.15
2022-12-03T16:16:01.316Z,32.55
2022-12-03T16:18:28.166Z,54.83
2022-12-03T16:20:55.013Z,28.40
2022-12-03T16:23:21.899Z,22.67
2022-12-03T16:25:48.752Z,22.95
2022-12-03T16:28:15.645Z,22.88
2022-12-03T16:30:42.598Z,15.37
2022-12-03T16:33:09.737Z,21.10
2022-12-03T16:35:40.341Z,27.67
2022-12-03T16:38:07.256Z,15.82
2022-12-03T16:40:34.145Z,19.20
2022-12-03T16:43:04.099Z,28.40
2022-12-03T16:45:34.145Z,23.35
2022-12-03T16:48:01.893Z,23.17
2022-12-03T16:50:30.244Z,39.80
2022-12-03T16:52:58.019Z,24.60
2022-12-03T16:55:24.959Z,18.90
2022-12-03T16:57:51.859Z,35.55
2022-12-03T17:00:21.704Z,36.20
2022-12-03T17:02:48.903Z,27.05
2022-12-03T17:05:15.820Z,29.88
2022-12-03T17:07:42.851Z,29.23
2022-12-03T17:10:10.616Z,51.80
2022-12-03T17:13:07.590Z,32.38
2022-12-03T17:15:24.404Z,27.00
2022-12-03T17:17:53.273Z,50.85
2022-12-03T17:20:20.365Z,56.67
2022-12-03T17:22:47.237Z,36.58
2022-12-03T17:25:14.295Z,46.22
2022-12-03T17:27:45.097Z,29.23
2022-12-03T17:30:13.326Z,63.47
2022-12-03T17:32:40.414Z,63.47
2022-12-03T17:35:08.345Z,51.58
2022-12-03T17:37:35.884Z,55.80
2022-12-03T17:40:06.686Z,43.17
2022-12-03T17:42:33.614Z,33.85
2022-12-03T17:45:00.453Z,46.03
2022-12-03T17:47:27.300Z,57.28
2022-12-03T17:49:54.405Z,36.35
2022-12-03T17:52:21.412Z,27.27
2022-12-03T17:55:09.971Z,54.67
2022-12-03T17:57:35.317Z,18.13
2022-12-03T18:00:02.256Z,37.40
2022-12-03T18:02:39.202Z,50.70
2022-12-03T18:05:06.257Z,37.72
2022-12-03T18:07:33.197Z,60.75
2022-12-03T18:10:00.214Z,23.70
2022-12-03T18:12:27.114Z,65.25
2022-12-03T18:14:53.976Z,42.75
2022-12-03T18:17:20.812Z,39.10
2022-12-03T18:19:47.809Z,29.90
2022-12-03T18:22:14.895Z,65.20
2022-12-03T18:24:44.889Z,44.00
2022-12-03T18:27:12.035Z,45.17
2022-12-03T18:29:38.892Z,39.58
2022-12-03T18:32:27.241Z,73.95
2022-12-03T18:34:55.834Z,70.93
2022-12-03T18:37:28.041Z,43.38
2022-12-03T18:39:56.525Z,52.03
2022-12-03T18:42:23.919Z,70.70
2022-12-03T18:44:53.070Z,53.07
2022-12-03T18:47:22.564Z,64.60
2022-12-03T18:49:49.632Z,50.03
2022-12-03T18:52:19.179Z,74.43
2022-12-03T18:54:46.657Z,45.13
2022-12-03T18:57:14.058Z,62.78
2022-12-03T18:59:43.600Z,45.05
2022-12-03T19:02:38.443Z,52.47
2022-12-03T19:05:04.685Z,61.95
2022-12-03T19:07:31.551Z,66.00
2022-12-03T19:09:58.576Z,44.63
2022-12-03T19:12:25.505Z,63.22
2022-12-03T19:14:52.475Z,49.55
2022-12-03T19:17:19.428Z,60.70
2022-12-03T19:19:46.512Z,46.90
2022-12-03T19:22:13.478Z,67.90
2022-12-03T19:24:40.377Z,22.90
2022-12-03T19:27:07.514Z,58.53
2022-12-03T19:29:34.615Z,34.13
2022-12-03T19:32:01.573Z,57.45
2022-12-03T19:34:28.460Z,23.35
2022-12-03T19:36:55.297Z,20.00
2022-12-03T19:39:22.290Z,40.85
2022-12-03T19:41:49.406Z,28.48
2022-12-03T19:44:18.244Z,64.28
2022-12-03T19:46:45.363Z,38.22
2022-12-03T19:49:12.167Z,40.67
2022-12-03T19:51:39.240Z,30.85
2022-12-03T19:54:07.860Z,28.30
2022-12-03T19:56:34.972Z,58.03
2022-12-03T19:59:02.083Z,51.50
2022-12-03T20:01:32.174Z,30.58
2022-12-03T20:04:01.379Z,58.33
2022-12-03T20:06:31.338Z,36.83
2022-12-03T20:09:00.908Z,30.67
2022-12-03T20:11:30.634Z,49.65
2022-12-03T20:14:00.568Z,27.02
2022-12-03T20:16:28.105Z,34.45
2022-12-03T20:19:04.514Z,50.72
2022-12-03T20:21:34.356Z,56.40
2022-12-03T20:24:01.843Z,28.23
2022-12-03T20:26:28.879Z,35.10
2022-12-03T20:28:56.992Z,38.77
2022-12-03T20:31:27.304Z,42.07
2022-12-03T20:33:56.941Z,28.42
2022-12-03T20:36:24.644Z,27.08
2022-12-03T20:38:56.230Z,57.70
2022-12-03T20:41:23.395Z,35.60
2022-12-03T20:43:51.082Z,30.35
2022-12-03T20:46:21.381Z,46.55
2022-12-03T20:48:48.594Z,27.42
2022-12-03T20:51:19.891Z,40.73
2022-12-03T20:53:47.602Z,37.75
2022-12-03T20:56:23.053Z,48.15
2022-12-03T20:58:50.637Z,54.47
2022-12-03T21:01:20.827Z,33.80
2022-12-03T21:03:48.689Z,19.85
2022-12-03T21:06:19.121Z,41.90
2022-12-03T21:08:46.394Z,56.40
2022-12-03T21:11:19.542Z,56.72
2022-12-03T21:13:47.219Z,29.77
2022-12-03T21:16:34.177Z,49.40
2022-12-03T21:19:07.401Z,47.03
2022-12-03T21:21:35.485Z,22.23
2022-12-03T21:24:02.374Z,37.13
2022-12-03T21:26:29.265Z,29.45
2022-12-03T21:28:56.180Z,44.30
2022-12-03T21:31:25.842Z,15.10
2022-12-03T21:33:54.485Z,38.27
2022-12-03T21:36:21.585Z,22.98
2022-12-03T21:38:48.595Z,41.80
2022-12-03T21:41:16.031Z,30.05
2022-12-03T21:43:43.956Z,30.90
2022-12-03T21:47:12.342Z,39.10
2022-12-03T21:49:01.517Z,23.50
2022-12-03T21:51:28.436Z,26.05
2022-12-03T21:53:55.345Z,22.23
2022-12-03T21:56:22.314Z,31.80
2022-12-03T21:58:49.217Z,45.20
2022-12-03T22:01:20.396Z,22.58
2022-12-03T22:03:48.035Z,34.15
2022-12-03T22:06:15.742Z,22.90
2022-12-03T22:08:43.326Z,49.40
2022-12-03T22:11:13.643Z,47.90
2022-12-03T22:13:40.906Z,39.08
2022-12-03T22:16:13.469Z,36.45
2022-12-03T22:18:41.163Z,55.72
2022-12-03T22:21:12.412Z,44.78
2022-12-03T22:23:40.099Z,47.77
2022-12-03T22:26:13.962Z,25.95
2022-12-03T22:28:47.652Z,29.38
2022-12-03T22:31:15.669Z,60.67
2022-12-03T22:33:43.623Z,58.17
2022-12-03T22:36:19.721Z,34.25
2022-12-03T22:38:48.331Z,34.95
2022-12-03T22:41:15.824Z,57.55
2022-12-03T22:43:43.105Z,39.95
2022-12-03T22:46:13.502Z,38.63
2022-12-03T22:48:45.068Z,38.88
2022-12-03T22:51:18.573Z,58.28
2022-12-03T22:53:45.439Z,29.27
2022-12-03T22:56:12.555Z,57.80
2022-12-03T22:58:40.136Z,28.52
2022-12-03T23:01:07.561Z,62.88
2022-12-03T23:03:34.791Z,52.38
2022-12-03T23:06:08.203Z,42.67
2022-12-03T23:08:35.100Z,39.63
2022-12-03T23:11:02.013Z,58.57
2022-12-03T23:13:28.973Z,61.28
2022-12-03T23:15:55.940Z,63.58
2022-12-03T23:18:23.103Z,49.45
2022-12-03T23:20:52.458Z,38.20
2022-12-03T23:23:20.616Z,59.65
2022-12-03T23:26:01.580Z,54.42
2022-12-03T23:28:31.058Z,60.40
2022-12-03T23:30:58.223Z,51.15
2022-12-03T23:33:25.994Z,44.15
2022-12-03T23:35:52.980Z,40.33
2022-12-03T23:38:20.053Z,57.67
2022-12-03T23:40:48.474Z,47.28
2022-12-03T23:43:16.027Z,50.35
2022-12-03T23:45:42.917Z,55.72
2022-12-03T23:48:09.795Z,58.90
2022-12-03T23:50:39.863Z,64.17
2022-12-03T23:53:06.699Z,51.63
2022-12-03T23:55:33.776Z,61.80
2022-12-03T23:58:00.781Z,50.35
